createdAt,value
2018-06-15T00:01:07.523Z,22.63
2018-06-15T00:03:35.302Z,24.37
2018-06-15T00:06:03.000Z,23.83
2018-06-15T00:08:30.682Z,26.73
2018-06-15T00:11:00.127Z,21.80
2018-06-15T00:13:30.091Z,21.97
2018-06-15T00:15:58.978Z,23.80
2018-06-15T00:18:26.776Z,23.13
2018-06-15T00:20:55.421Z,26.40
2018-06-15T00:23:23.123Z,23.27
2018-06-15T00:25:50.765Z,25.07
2018-06-15T00:28:18.445Z,21.20
2018-06-15T00:30:46.288Z,23.40
2018-06-15T00:33:14.042Z,27.33
2018-06-15T00:35:42.838Z,23.93
2018-06-15T00:38:12.545Z,23.87
2018-06-15T00:40:40.226Z,32.30
2018-06-15T00:43:09.203Z,28.50
2018-06-15T00:45:37.000Z,23.93
2018-06-15T00:48:04.606Z,24.20
2018-06-15T00:50:32.393Z,27.60
2018-06-15T00:53:01.261Z,23.50
2018-06-15T00:55:28.994Z,25.40
2018-06-15T00:57:56.760Z,26.67
2018-06-15T01:00:25.662Z,26.83
2018-06-15T01:02:55.479Z,26.57
2018-06-15T01:05:23.269Z,37.97
2018-06-15T01:07:52.129Z,29.03
2018-06-15T01:10:19.754Z,28.37
2018-06-15T01:12:47.588Z,28.90
2018-06-15T01:15:15.290Z,30.63
2018-06-15T01:17:43.078Z,32.77
2018-06-15T01:20:10.854Z,31.87
2018-06-15T01:22:38.768Z,33.23
2018-06-15T01:25:06.535Z,33.63
2018-06-15T01:27:34.267Z,32.10
2018-06-15T01:30:03.316Z,39.70
2018-06-15T01:32:32.146Z,37.47
2018-06-15T01:34:59.923Z,41.73
2018-06-15T01:37:27.711Z,36.70
2018-06-15T01:39:56.332Z,41.90
2018-06-15T01:42:24.098Z,40.90
2018-06-15T01:44:51.918Z,41.07
2018-06-15T01:47:20.902Z,39.13
2018-06-15T01:49:48.633Z,45.73
2018-06-15T01:52:16.384Z,42.83
2018-06-15T01:54:44.085Z,43.87
2018-06-15T01:57:12.839Z,45.73
2018-06-15T01:59:43.982Z,44.77
2018-06-15T02:02:11.859Z,48.23
2018-06-15T02:04:39.646Z,47.27
2018-06-15T02:07:07.419Z,45.00
2018-06-15T02:09:36.059Z,48.40
2018-06-15T02:12:03.744Z,55.50
2018-06-15T02:14:31.507Z,52.00
2018-06-15T02:16:59.384Z,44.47
2018-06-15T02:19:27.147Z,46.17
2018-06-15T02:21:56.053Z,49.77
2018-06-15T02:24:23.868Z,47.00
2018-06-15T02:26:51.748Z,45.07
2018-06-15T02:29:21.685Z,47.40
2018-06-15T02:31:50.547Z,45.90
2018-06-15T02:34:18.361Z,48.60
2018-06-15T02:36:47.209Z,51.80
2018-06-15T02:39:15.200Z,46.83
2018-06-15T02:41:43.064Z,48.20
2018-06-15T02:44:10.822Z,46.70
2018-06-15T02:46:39.176Z,49.83
2018-06-15T02:49:07.085Z,46.93
2018-06-15T02:51:34.934Z,49.43
2018-06-15T02:54:02.976Z,50.77
2018-06-15T02:56:33.118Z,48.03
2018-06-15T02:59:00.830Z,48.23
2018-06-15T03:01:28.647Z,49.10
2018-06-15T03:03:56.493Z,51.33
2018-06-15T03:06:24.692Z,47.73
2018-06-15T03:08:53.595Z,48.50
2018-06-15T03:11:21.288Z,42.80
2018-06-15T03:13:49.249Z,48.20
2018-06-15T03:16:17.042Z,50.67
2018-06-15T03:18:44.808Z,54.53
2018-06-15T03:21:13.617Z,48.60
2018-06-15T03:23:41.953Z,52.13
2018-06-15T03:26:09.742Z,48.80
2018-06-15T03:28:37.953Z,49.70
2018-06-15T03:31:05.706Z,46.23
2018-06-15T03:33:34.572Z,54.70
2018-06-15T03:36:02.852Z,46.13
2018-06-15T03:38:30.657Z,46.60
2018-06-15T03:41:02.939Z,46.73
2018-06-15T03:43:31.785Z,46.77
2018-06-15T03:46:00.491Z,46.07
2018-06-15T03:48:28.284Z,48.23
2018-06-15T03:50:59.944Z,44.47
2018-06-15T03:53:27.645Z,44.67
2018-06-15T03:55:57.454Z,45.23
2018-06-15T03:58:25.519Z,42.93
2018-06-15T04:00:54.208Z,43.53
2018-06-15T04:03:22.056Z,51.27
2018-06-15T04:05:50.997Z,48.00
2018-06-15T04:08:18.909Z,45.47
2018-06-15T04:10:47.093Z,45.37
2018-06-15T04:13:15.615Z,48.30
2018-06-15T04:15:43.609Z,51.20
2018-06-15T04:18:13.038Z,48.20
2018-06-15T04:20:41.031Z,47.10
2018-06-15T04:23:08.831Z,48.63
2018-06-15T04:25:36.669Z,52.80
2018-06-15T04:28:04.457Z,53.80
2018-06-15T04:30:32.265Z,47.80
2018-06-15T04:32:59.975Z,47.03
2018-06-15T04:35:28.974Z,50.77
2018-06-15T04:37:56.834Z,49.00
2018-06-15T04:40:24.612Z,52.40
2018-06-15T04:42:52.303Z,52.50
2018-06-15T04:45:20.200Z,47.90
2018-06-15T04:47:48.002Z,45.63
2018-06-15T04:50:15.782Z,51.97
2018-06-15T04:52:43.503Z,49.77
2018-06-15T04:55:11.380Z,56.60
2018-06-15T04:57:39.410Z,47.23
2018-06-15T05:00:07.182Z,55.73
2018-06-15T05:02:35.073Z,51.30
2018-06-15T05:05:02.758Z,52.67
2018-06-15T05:07:30.464Z,47.57
2018-06-15T05:09:58.139Z,48.20
2018-06-15T05:12:26.567Z,51.83
2018-06-15T05:14:54.430Z,44.80
2018-06-15T05:17:22.116Z,53.53
2018-06-15T05:19:49.866Z,45.80
2018-06-15T05:22:17.684Z,49.97
2018-06-15T05:24:45.523Z,50.73
2018-06-15T05:27:13.279Z,49.97
2018-06-15T05:29:40.944Z,45.13
2018-06-15T05:32:09.887Z,46.77
2018-06-15T05:34:38.074Z,45.00
2018-06-15T05:37:05.779Z,43.40
2018-06-15T05:39:33.529Z,49.20
2018-06-15T05:42:01.121Z,49.37
2018-06-15T05:44:28.483Z,43.67
2018-06-15T05:46:55.888Z,48.00
2018-06-15T05:49:23.280Z,50.03
2018-06-15T05:51:50.736Z,47.37
2018-06-15T05:54:18.123Z,40.73
2018-06-15T05:56:45.571Z,39.80
2018-06-15T05:59:13.043Z,44.57
2018-06-15T06:01:40.608Z,40.03
2018-06-15T06:04:08.087Z,45.97
2018-06-15T06:06:35.458Z,38.53
2018-06-15T06:09:05.071Z,40.97
2018-06-15T06:11:32.433Z,42.10
2018-06-15T06:13:59.819Z,39.30
2018-06-15T06:16:27.287Z,35.37
2018-06-15T06:18:54.764Z,37.67
2018-06-15T06:21:22.210Z,35.53
2018-06-15T06:23:49.607Z,36.97
2018-06-15T06:26:17.083Z,37.60
2018-06-15T06:28:44.532Z,39.70
2018-06-15T06:31:11.995Z,37.20
2018-06-15T06:33:39.479Z,37.80
2018-06-15T06:36:06.968Z,43.33
2018-06-15T06:38:34.431Z,38.93
2018-06-15T06:41:01.867Z,31.27
2018-06-15T06:43:29.230Z,33.47
2018-06-15T06:45:56.628Z,34.70
2018-06-15T06:48:25.128Z,33.73
2018-06-15T06:50:52.586Z,37.43
2018-06-15T06:53:20.070Z,37.53
2018-06-15T06:55:47.554Z,42.10
2018-06-15T06:58:15.019Z,39.70
2018-06-15T07:00:42.512Z,36.70
2018-06-15T07:03:09.930Z,36.13
2018-06-15T07:05:37.387Z,45.83
2018-06-15T07:08:04.760Z,40.50
2018-06-15T07:10:32.111Z,29.27
2018-06-15T07:12:59.604Z,36.03
2018-06-15T07:15:27.071Z,34.73
2018-06-15T07:17:54.554Z,33.30
2018-06-15T07:20:22.011Z,28.00
2018-06-15T07:22:49.481Z,30.30
2018-06-15T07:25:17.305Z,37.87
2018-06-15T07:27:44.823Z,27.80
2018-06-15T07:30:12.190Z,24.33
2018-06-15T07:32:39.552Z,23.23
2018-06-15T07:35:07.730Z,21.30
2018-06-15T07:37:35.209Z,24.20
2018-06-15T07:40:02.726Z,26.53
2018-06-15T07:42:30.179Z,28.50
2018-06-15T07:44:57.646Z,27.17
2018-06-15T07:47:25.299Z,23.33
2018-06-15T07:49:52.791Z,25.40
2018-06-15T07:52:20.243Z,25.87
2018-06-15T07:54:47.628Z,25.00
2018-06-15T07:57:15.202Z,22.60
2018-06-15T07:59:42.666Z,22.57
2018-06-15T08:02:10.138Z,28.67
2018-06-15T08:04:37.603Z,18.13
2018-06-15T08:07:05.104Z,18.20
2018-06-15T08:09:32.542Z,18.90
2018-06-15T08:12:00.043Z,15.97
2018-06-15T08:14:27.478Z,14.40
2018-06-15T08:16:54.994Z,14.40
2018-06-15T08:19:22.454Z,13.23
2018-06-15T08:21:51.012Z,14.83
2018-06-15T08:24:18.375Z,15.10
2018-06-15T08:26:45.766Z,14.10
2018-06-15T08:29:13.219Z,12.27
2018-06-15T08:31:40.698Z,11.43
2018-06-15T08:34:08.191Z,12.23
2018-06-15T08:36:35.788Z,8.43
2018-06-15T08:39:05.063Z,10.63
2018-06-15T08:41:33.292Z,10.43
2018-06-15T08:44:00.762Z,14.43
2018-06-15T08:46:28.172Z,10.60
2018-06-15T08:48:55.687Z,7.07
2018-06-15T08:51:23.194Z,9.63
2018-06-15T08:53:50.584Z,11.53
2018-06-15T08:56:18.083Z,7.13
2018-06-15T08:58:45.511Z,9.97
2018-06-15T09:01:12.942Z,9.50
2018-06-15T09:03:40.363Z,8.13
2018-06-15T09:06:07.826Z,7.17
2018-06-15T09:08:35.300Z,7.60
2018-06-15T09:11:02.782Z,8.93
2018-06-15T09:13:30.326Z,8.23
2018-06-15T09:15:57.778Z,7.37
2018-06-15T09:18:25.208Z,9.70
2018-06-15T09:20:52.640Z,8.30
2018-06-15T09:23:20.027Z,11.40
2018-06-15T09:25:47.496Z,8.57
2018-06-15T09:28:14.958Z,5.80
2018-06-15T09:30:42.423Z,7.10
2018-06-15T09:33:09.911Z,11.93
2018-06-15T09:35:37.403Z,9.17
2018-06-15T09:38:04.896Z,5.30
2018-06-15T09:40:32.283Z,11.73
2018-06-15T09:42:59.737Z,14.90
2018-06-15T09:45:27.180Z,7.97
2018-06-15T09:47:54.639Z,10.60
2018-06-15T09:50:22.075Z,7.10
2018-06-15T09:52:49.460Z,9.97
2018-06-15T09:55:16.919Z,5.97
2018-06-15T09:57:44.383Z,9.90
2018-06-15T10:00:16.331Z,15.97
2018-06-15T10:02:43.719Z,10.33
2018-06-15T10:05:11.087Z,6.50
2018-06-15T10:07:38.509Z,7.27
2018-06-15T10:10:05.932Z,9.13
2018-06-15T10:12:33.387Z,8.63
2018-06-15T10:15:00.787Z,13.87
2018-06-15T10:17:28.266Z,4.63
2018-06-15T10:19:55.731Z,10.10
2018-06-15T10:22:23.230Z,7.07
2018-06-15T10:24:50.651Z,10.83
2018-06-15T10:27:18.122Z,8.70
2018-06-15T10:29:45.603Z,7.93
2018-06-15T10:32:13.160Z,9.47
2018-06-15T10:34:40.642Z,9.10
2018-06-15T10:37:08.114Z,7.53
2018-06-15T10:39:35.651Z,9.10
2018-06-15T10:42:03.065Z,8.70
2018-06-15T10:44:30.519Z,7.20
2018-06-15T10:46:57.991Z,6.53
2018-06-15T10:49:25.452Z,6.63
2018-06-15T10:51:52.881Z,8.63
2018-06-15T10:54:20.295Z,9.73
2018-06-15T10:56:47.811Z,5.47
2018-06-15T10:59:15.251Z,6.87
2018-06-15T11:01:42.686Z,8.53
2018-06-15T11:05:13.464Z,5.80
2018-06-15T11:07:41.016Z,7.23
2018-06-15T11:10:08.415Z,6.23
2018-06-15T11:12:35.911Z,6.00
2018-06-15T11:15:04.184Z,7.87
2018-06-15T11:17:32.138Z,7.20
2018-06-15T11:19:59.688Z,8.10
2018-06-15T11:22:27.069Z,7.00
2018-06-15T11:24:54.519Z,7.27
2018-06-15T11:27:21.976Z,6.03
2018-06-15T11:29:49.399Z,5.90
2018-06-15T11:32:16.899Z,4.90
2018-06-15T11:36:08.939Z,8.20
2018-06-15T11:38:36.412Z,6.20
2018-06-15T11:41:03.958Z,5.20
2018-06-15T11:43:31.318Z,5.80
2018-06-15T11:45:58.735Z,6.50
2018-06-15T11:48:26.150Z,5.00
2018-06-15T11:50:53.553Z,5.27
2018-06-15T11:53:21.050Z,9.77
2018-06-15T11:55:48.495Z,17.00
2018-06-15T11:58:16.014Z,6.20
2018-06-15T12:00:43.408Z,5.67
2018-06-15T12:03:10.805Z,8.20
2018-06-15T12:05:38.255Z,11.13
2018-06-15T12:08:05.959Z,5.13
2018-06-15T12:10:33.394Z,7.43
2018-06-15T12:13:00.857Z,4.47
2018-06-15T12:15:28.285Z,6.87
2018-06-15T12:17:55.714Z,8.10
2018-06-15T12:20:23.171Z,4.00
2018-06-15T12:22:50.652Z,8.47
2018-06-15T12:25:18.125Z,5.17
2018-06-15T12:27:45.599Z,3.73
2018-06-15T12:30:13.058Z,6.30
2018-06-15T12:32:40.599Z,4.67
2018-06-15T12:35:08.019Z,8.50
2018-06-15T12:37:35.511Z,6.70
2018-06-15T12:40:03.006Z,6.67
2018-06-15T12:42:30.394Z,5.27
2018-06-15T12:44:57.779Z,7.50
2018-06-15T12:47:25.261Z,7.60
2018-06-15T12:49:52.731Z,5.37
2018-06-15T12:52:20.216Z,8.43
2018-06-15T12:54:47.701Z,4.77
2018-06-15T12:57:15.147Z,3.63
2018-06-15T12:59:42.631Z,5.80
2018-06-15T13:02:10.065Z,5.50
2018-06-15T13:04:37.541Z,5.83
2018-06-15T13:07:05.033Z,6.43
2018-06-15T13:09:32.491Z,5.03
2018-06-15T13:11:59.956Z,5.70
2018-06-15T13:14:27.379Z,5.90
2018-06-15T13:16:54.828Z,6.70
2018-06-15T13:19:22.246Z,8.67
2018-06-15T13:21:49.706Z,4.50
2018-06-15T13:24:17.075Z,6.73
2018-06-15T13:26:44.467Z,7.57
2018-06-15T13:29:11.922Z,4.03
2018-06-15T13:31:40.303Z,4.80
2018-06-15T13:34:07.727Z,7.10
2018-06-15T13:36:35.258Z,4.60
2018-06-15T13:39:03.555Z,7.57
2018-06-15T13:41:31.014Z,6.20
2018-06-15T13:43:58.470Z,8.77
2018-06-15T13:46:25.868Z,8.30
2018-06-15T13:48:53.330Z,4.80
2018-06-15T13:51:20.787Z,7.00
2018-06-15T13:53:48.259Z,10.87
2018-06-15T13:56:15.722Z,8.50
2018-06-15T13:58:44.114Z,7.17
2018-06-15T14:01:11.476Z,5.80
2018-06-15T14:03:38.884Z,6.60
2018-06-15T14:06:06.331Z,11.80
2018-06-15T14:08:33.795Z,6.97
2018-06-15T14:11:01.310Z,4.53
2018-06-15T14:13:28.775Z,3.70
2018-06-15T14:15:56.207Z,5.00
2018-06-15T14:18:23.659Z,8.90
2018-06-15T14:20:51.095Z,6.43
2018-06-15T14:23:18.499Z,4.50
2018-06-15T14:25:45.968Z,5.13
2018-06-15T14:28:13.408Z,6.60
2018-06-15T14:30:40.857Z,9.50
2018-06-15T14:33:08.327Z,5.90
2018-06-15T14:35:35.756Z,5.27
2018-06-15T14:38:03.218Z,3.50
2018-06-15T14:40:30.725Z,7.40
2018-06-15T14:42:58.211Z,9.10
2018-06-15T14:45:25.627Z,8.70
2018-06-15T14:47:53.031Z,6.20
2018-06-15T14:50:20.455Z,9.30
2018-06-15T14:52:47.815Z,8.37
2018-06-15T14:55:15.215Z,4.47
2018-06-15T14:57:42.744Z,4.90
2018-06-15T15:00:10.152Z,5.07
2018-06-15T15:02:37.646Z,6.67
2018-06-15T15:05:05.121Z,6.23
2018-06-15T15:07:32.559Z,4.67
2018-06-15T15:10:00.093Z,5.43
2018-06-15T15:12:27.607Z,8.27
2018-06-15T15:14:55.134Z,6.80
2018-06-15T15:17:22.584Z,5.17
2018-06-15T15:19:50.011Z,5.20
2018-06-15T15:22:17.481Z,9.80
2018-06-15T15:24:45.020Z,8.13
2018-06-15T15:27:12.419Z,9.13
2018-06-15T15:29:39.883Z,9.53
2018-06-15T15:32:07.244Z,8.43
2018-06-15T15:34:34.617Z,7.03
2018-06-15T15:37:01.971Z,9.90
2018-06-15T15:39:29.380Z,4.60
2018-06-15T15:41:56.848Z,5.20
2018-06-15T15:44:24.283Z,4.30
2018-06-15T15:46:51.719Z,2.80
2018-06-15T15:49:19.264Z,4.07
2018-06-15T15:51:46.727Z,6.93
2018-06-15T15:54:14.219Z,5.20
2018-06-15T15:56:41.774Z,6.67
2018-06-15T15:59:09.435Z,9.30
2018-06-15T16:01:36.947Z,3.50
2018-06-15T16:04:04.382Z,8.43
2018-06-15T16:06:31.838Z,6.60
2018-06-15T16:08:59.371Z,4.43
2018-06-15T16:11:26.822Z,5.20
2018-06-15T16:13:54.257Z,7.47
2018-06-15T16:16:21.702Z,12.77
2018-06-15T16:18:49.140Z,7.10
2018-06-15T16:21:16.658Z,5.40
2018-06-15T16:23:44.223Z,3.27
2018-06-15T16:26:11.714Z,5.13
2018-06-15T16:28:39.202Z,9.30
2018-06-15T16:31:06.630Z,6.00
2018-06-15T16:33:34.000Z,3.67
2018-06-15T16:36:01.440Z,4.87
2018-06-15T16:38:28.890Z,4.17
2018-06-15T16:40:56.336Z,5.40
2018-06-15T16:43:23.816Z,6.07
2018-06-15T16:45:51.307Z,6.23
2018-06-15T16:48:18.962Z,4.47
2018-06-15T16:50:46.407Z,4.10
2018-06-15T16:53:13.889Z,5.27
2018-06-15T16:55:41.366Z,7.73
2018-06-15T16:58:08.919Z,5.73
2018-06-15T17:00:36.370Z,3.00
2018-06-15T17:03:03.798Z,8.13
2018-06-15T17:05:31.300Z,6.63
2018-06-15T17:07:58.687Z,6.40
2018-06-15T17:10:26.205Z,5.27
2018-06-15T17:12:53.636Z,3.30
2018-06-15T17:15:38.883Z,4.30
2018-06-15T17:18:06.379Z,4.70
2018-06-15T17:20:33.864Z,7.63
2018-06-15T17:23:01.448Z,3.27
2018-06-15T17:25:28.944Z,4.37
2018-06-15T17:29:25.974Z,5.47
2018-06-15T17:31:54.399Z,5.37
2018-06-15T17:34:21.834Z,4.93
2018-06-15T17:36:49.347Z,5.80
2018-06-15T17:39:16.791Z,6.57
2018-06-15T17:41:44.751Z,6.07
2018-06-15T17:44:12.139Z,8.00
2018-06-15T17:46:39.599Z,5.10
2018-06-15T17:49:07.579Z,7.70
2018-06-15T17:51:35.106Z,4.50
2018-06-15T17:54:02.546Z,3.90
2018-06-15T17:56:30.002Z,4.20
2018-06-15T17:58:57.492Z,6.40
2018-06-15T18:01:25.767Z,3.80
2018-06-15T18:03:53.223Z,6.27
2018-06-15T18:06:20.682Z,7.20
2018-06-15T18:08:48.183Z,7.67
2018-06-15T18:11:15.630Z,6.87
2018-06-15T18:13:43.109Z,5.27
2018-06-15T18:16:10.575Z,7.93
2018-06-15T18:18:38.043Z,6.63
2018-06-15T18:21:05.531Z,4.60
2018-06-15T18:23:33.007Z,10.00
2018-06-15T18:26:00.465Z,7.27
2018-06-15T18:28:27.965Z,6.30
2018-06-15T18:30:55.424Z,9.23
2018-06-15T18:33:23.279Z,7.63
2018-06-15T18:35:50.752Z,4.77
2018-06-15T18:38:18.218Z,4.93
2018-06-15T18:40:45.722Z,8.30
2018-06-15T18:43:13.130Z,6.80
2018-06-15T18:45:40.515Z,9.90
2018-06-15T18:48:08.072Z,6.57
2018-06-15T18:50:35.670Z,5.73
2018-06-15T18:53:03.183Z,8.27
2018-06-15T18:55:30.611Z,7.10
2018-06-15T18:57:58.132Z,8.93
2018-06-15T19:00:25.551Z,6.97
2018-06-15T19:02:53.074Z,7.30
2018-06-15T19:05:20.467Z,6.63
2018-06-15T19:07:47.899Z,9.40
2018-06-15T19:10:15.311Z,11.00
2018-06-15T19:12:42.832Z,7.87
2018-06-15T19:15:10.271Z,11.83
2018-06-15T19:17:37.730Z,5.90
2018-06-15T19:20:05.202Z,8.23
2018-06-15T19:22:32.808Z,9.73
2018-06-15T19:25:00.240Z,6.13
2018-06-15T19:27:27.704Z,8.87
2018-06-15T19:29:55.225Z,12.73
2018-06-15T19:32:22.656Z,11.93
2018-06-15T19:34:50.099Z,7.00
2018-06-15T19:37:17.548Z,11.00
2018-06-15T19:39:44.955Z,9.07
2018-06-15T19:42:12.482Z,8.33
2018-06-15T19:44:39.895Z,7.63
2018-06-15T19:47:07.351Z,8.10
2018-06-15T19:49:34.784Z,9.60
2018-06-15T19:52:02.251Z,7.63
2018-06-15T19:54:29.651Z,8.50
2018-06-15T19:56:57.060Z,10.47
2018-06-15T19:59:24.608Z,11.00
2018-06-15T20:01:52.087Z,11.13
2018-06-15T20:04:19.574Z,6.43
2018-06-15T20:06:47.034Z,6.53
2018-06-15T20:09:14.499Z,8.30
2018-06-15T20:11:41.965Z,8.77
2018-06-15T20:14:09.547Z,8.30
2018-06-15T20:16:37.002Z,11.70
2018-06-15T20:19:04.493Z,8.40
2018-06-15T20:21:32.020Z,11.20
2018-06-15T20:23:59.415Z,11.13
2018-06-15T20:26:26.883Z,8.97
2018-06-15T20:28:54.456Z,8.73
2018-06-15T20:31:21.950Z,14.50
2018-06-15T20:33:49.479Z,9.13
2018-06-15T20:36:16.936Z,12.10
2018-06-15T20:38:44.411Z,9.43
2018-06-15T20:41:11.788Z,12.63
2018-06-15T20:43:39.308Z,13.67
2018-06-15T20:46:06.746Z,7.80
2018-06-15T20:48:34.203Z,7.93
2018-06-15T20:51:01.682Z,8.23
2018-06-15T20:53:29.130Z,12.10
2018-06-15T20:55:56.586Z,8.00
2018-06-15T20:58:25.085Z,12.60
2018-06-15T21:00:52.487Z,8.03
2018-06-15T21:03:19.949Z,14.53
2018-06-15T21:05:47.492Z,19.50
2018-06-15T21:08:14.903Z,11.13
2018-06-15T21:10:42.371Z,13.03
2018-06-15T21:13:09.823Z,11.40
2018-06-15T21:15:37.233Z,16.30
2018-06-15T21:18:04.675Z,9.43
2018-06-15T21:20:32.132Z,10.37
2018-06-15T21:22:59.801Z,9.63
2018-06-15T21:25:27.159Z,10.60
2018-06-15T21:27:54.546Z,10.23
2018-06-15T21:30:22.075Z,13.03
2018-06-15T21:32:49.653Z,12.20
2018-06-15T21:35:17.056Z,8.10
2018-06-15T21:37:44.422Z,10.07
2018-06-15T21:40:11.847Z,14.33
2018-06-15T21:42:39.294Z,8.57
2018-06-15T21:45:06.739Z,10.93
2018-06-15T21:47:34.223Z,15.83
2018-06-15T21:50:01.700Z,17.50
2018-06-15T21:52:29.156Z,11.10
2018-06-15T21:54:56.655Z,11.03
2018-06-15T21:57:24.040Z,8.40
2018-06-15T21:59:51.450Z,8.63
2018-06-15T22:02:18.831Z,12.70
2018-06-15T22:04:46.334Z,10.07
2018-06-15T22:07:13.784Z,13.00
2018-06-15T22:09:41.228Z,9.67
2018-06-15T22:12:08.685Z,10.67
2018-06-15T22:14:36.072Z,13.60
2018-06-15T22:17:03.535Z,9.00
2018-06-15T22:19:31.000Z,13.30
2018-06-15T22:21:58.364Z,10.77
2018-06-15T22:24:25.747Z,18.40
2018-06-15T22:26:53.202Z,12.10
2018-06-15T22:29:20.575Z,13.27
2018-06-15T22:31:48.683Z,10.40
2018-06-15T22:34:16.132Z,13.43
2018-06-15T22:36:43.612Z,10.87
2018-06-15T22:39:12.736Z,12.67
2018-06-15T22:41:40.508Z,11.57
2018-06-15T22:44:08.189Z,11.90
2018-06-15T22:46:35.675Z,11.77
2018-06-15T22:49:03.095Z,15.07
2018-06-15T22:51:30.555Z,16.27
2018-06-15T22:53:58.617Z,19.47
2018-06-15T22:56:26.031Z,15.90
2018-06-15T22:58:54.562Z,12.07
2018-06-15T23:01:22.885Z,12.90
2018-06-15T23:03:50.798Z,13.50
2018-06-15T23:06:18.492Z,18.23
2018-06-15T23:08:46.194Z,13.47
2018-06-15T23:11:13.945Z,16.13
2018-06-15T23:13:42.878Z,21.80
2018-06-15T23:16:12.669Z,11.83
2018-06-15T23:18:40.466Z,14.50
2018-06-15T23:21:08.227Z,11.30
2018-06-15T23:23:35.737Z,14.30
2018-06-15T23:26:03.164Z,14.30
2018-06-15T23:28:30.752Z,17.90
2018-06-15T23:30:58.571Z,12.90
2018-06-15T23:33:25.976Z,18.53
2018-06-15T23:35:53.651Z,14.33
2018-06-15T23:38:21.158Z,11.00
2018-06-15T23:40:48.563Z,12.93
2018-06-15T23:43:15.935Z,12.43
2018-06-15T23:45:43.419Z,13.60
2018-06-15T23:48:10.887Z,13.97
2018-06-15T23:50:38.342Z,11.30
2018-06-15T23:53:05.808Z,11.80
2018-06-15T23:55:33.206Z,15.67
2018-06-15T23:58:00.722Z,14.60
